Terminal Aerodrome Forecast
Issued by NWS Caribou, ME

Home | Current Version | Previous Version | Text Only | Print | Product List | Glossary On
Versions: 1 2 3 4 5 6 7 8 9 10 11 12 13 14 15
000
FTUS41 KCAR 281100
TAFCAR
TAF
KCAR 281120Z 2812/2912 32003KT P6SM BKN040
     FM281800 32014G22KT P6SM VCSH SCT025 BKN035 OVC050
     FM290000 32008KT P6SM SCT035 OVC050
     FM290700 34004KT P6SM BKN100=

USA.gov is the U.S. government's official web portal to all federal, state and local government web resources and services.